Tropical Cyclones
[Index]
Main Index Home Page Stock Weather Photos Extreme Storms Discussion Storm News and Storm Chasing Reports Tropical Cyclones / Hurricanes / Typhoons Weather Data and Links Wild Fires / Bushfires Weather Observation Techniques Weather Picture Catalogue Tornado Pictures and Reports Stock Video Footage and DVDs for sale
Season 1990-1991 Tropical Cyclone ELMA Track Map
Season 1990-1991 Summaries: [BoM-AU] [JTWC-AU] [JTWC-SIO] [JTWC-SPAC] [JTWC-SH]
<<- Previous TC | JTWC 1990-1991 Season | Next TC ->>

click for intensity scale information  Lat/long Grid: Show Hide

 Date Labels: Show Hide

Joint Typhoon Warning Centre Cyclone Data

Name: ELMA

26 Feb 1991 00:00 UTC to 04 Mar 1991 00:00 UTC

    date/time    lat    long     hPa   cat  kts
1991-02-26 00   11.5    86.1                  20          
1991-02-26 06   11.9    86.7                  25          
1991-02-26 12   12.1    87.6                  30          
1991-02-26 18   12.6    88.3                  35          
1991-02-27 00   13.1    88.9            1     40          
1991-02-27 06   14.1    88.9            1     40          
1991-02-27 12   14.7    88.3            1     45          
1991-02-27 18   15.4    87.9            1     50          
1991-02-28 00   16.1    87.8            2     60          
1991-02-28 06   16.8    87.9            2     60          
1991-02-28 12   17.6    88.2            2     60          
1991-02-28 18   18.4    88.6            2     60          
1991-03-01 00   19.0    88.8            2     55          
1991-03-01 06   19.7    88.9            2     55          
1991-03-01 12   20.2    89.3            1     50          
1991-03-01 18   20.7    89.8            1     45          
1991-03-02 00   21.4    90.3            1     45          
1991-03-02 06   22.0    90.6            1     45          
1991-03-02 12   22.5    91.0            1     45          
1991-03-02 18   22.9    91.5            1     45          
1991-03-03 00   23.5    92.1            1     40          
1991-03-03 06   24.3    92.7            1     40          
1991-03-03 12   25.0    93.7                  35          
1991-03-03 18   26.0    93.9                  35          
1991-03-04 00   26.6    92.9                  35          
Winds are 1-min average.

Tropical cyclone tracks developed by Michael Bath using data from the Joint Typhoon Warning Centre Best Tracks and Google Maps.


[Australian Severe Weather index] [Copyright Notice] [Email Contacts] [Search This Site] [Privacy Policy]
Document: tropical_cyclone_elma.htm Updated: 18 September 2016